createdAt,value
2023-05-22T00:00:02.489Z,57.28
2023-05-22T00:01:02.472Z,57.40
2023-05-22T00:02:02.499Z,57.29
2023-05-22T00:03:02.533Z,57.68
2023-05-22T00:04:02.421Z,57.56
2023-05-22T00:05:02.477Z,57.39
2023-05-22T00:06:02.367Z,57.80
2023-05-22T00:07:02.372Z,57.70
2023-05-22T00:08:02.338Z,58.07
2023-05-22T00:09:02.317Z,58.49
2023-05-22T00:10:02.297Z,59.02
2023-05-22T00:11:02.278Z,59.37
2023-05-22T00:12:02.299Z,59.52
2023-05-22T00:13:02.250Z,59.56
2023-05-22T00:14:02.266Z,59.35
2023-05-22T00:15:02.241Z,59.05
2023-05-22T00:16:02.214Z,59.16
2023-05-22T00:17:02.371Z,58.99
2023-05-22T00:18:02.250Z,58.86
2023-05-22T00:19:02.245Z,58.76
2023-05-22T00:20:02.201Z,58.78
2023-05-22T00:21:02.191Z,58.82
2023-05-22T00:22:02.194Z,58.50
2023-05-22T00:23:02.154Z,58.46
2023-05-22T00:24:02.146Z,58.42
2023-05-22T00:25:02.131Z,58.36
2023-05-22T00:26:02.121Z,58.24
2023-05-22T00:27:02.134Z,58.20
2023-05-22T00:28:02.183Z,58.22
2023-05-22T00:29:02.243Z,58.29
2023-05-22T00:30:02.391Z,58.34
2023-05-22T00:31:02.329Z,58.46
2023-05-22T00:32:02.361Z,58.45
2023-05-22T00:33:02.492Z,58.42
2023-05-22T00:34:02.534Z,58.51
2023-05-22T00:35:02.475Z,58.60
2023-05-22T00:36:02.518Z,59.00
2023-05-22T00:37:02.584Z,59.15
2023-05-22T00:38:02.609Z,59.55
2023-05-22T00:39:02.653Z,59.87
2023-05-22T00:40:02.727Z,60.34
2023-05-22T00:41:02.769Z,60.50
2023-05-22T00:42:02.810Z,60.47
2023-05-22T00:43:02.824Z,60.50
2023-05-22T00:44:02.856Z,60.47
2023-05-22T00:45:02.895Z,60.39
2023-05-22T00:46:02.975Z,60.31
2023-05-22T00:47:03.036Z,60.12
2023-05-22T00:48:03.097Z,60.03
2023-05-22T00:49:03.057Z,59.98
2023-05-22T00:50:03.117Z,59.98
2023-05-22T00:51:03.154Z,60.06
2023-05-22T00:52:03.270Z,60.07
2023-05-22T00:53:03.253Z,60.42
2023-05-22T00:54:03.279Z,60.72
2023-05-22T00:55:03.382Z,60.84
2023-05-22T00:56:03.379Z,61.07
2023-05-22T00:57:03.437Z,61.28
2023-05-22T00:58:03.494Z,61.22
2023-05-22T00:59:03.536Z,61.31
2023-05-22T01:00:03.587Z,61.45
2023-05-22T01:01:03.642Z,61.61
2023-05-22T01:02:03.872Z,61.96
2023-05-22T01:03:03.833Z,61.89
2023-05-22T01:04:03.933Z,61.80
2023-05-22T01:05:03.890Z,61.74
2023-05-22T01:06:03.932Z,61.74
2023-05-22T01:07:03.996Z,61.64
2023-05-22T01:08:04.090Z,61.54
2023-05-22T01:09:04.078Z,61.29
2023-05-22T01:10:04.145Z,61.43
2023-05-22T01:11:04.192Z,60.99
2023-05-22T01:12:04.219Z,60.83
2023-05-22T01:13:04.297Z,60.67
2023-05-22T01:14:04.335Z,60.70
2023-05-22T01:15:04.385Z,60.45
2023-05-22T01:16:04.473Z,60.36
2023-05-22T01:17:04.485Z,60.69
2023-05-22T01:18:04.620Z,60.75
2023-05-22T01:19:04.658Z,60.68
2023-05-22T01:20:04.632Z,60.63
2023-05-22T01:21:04.701Z,60.90
2023-05-22T01:22:04.759Z,60.91
2023-05-22T01:23:04.803Z,61.06
2023-05-22T01:24:04.859Z,61.57
2023-05-22T01:25:04.931Z,61.89
2023-05-22T01:26:04.990Z,62.19
2023-05-22T01:27:05.015Z,62.06
2023-05-22T01:28:05.099Z,62.39
2023-05-22T01:29:05.139Z,62.48
2023-05-22T01:30:05.220Z,62.61
2023-05-22T01:31:05.264Z,62.52
2023-05-22T01:32:05.334Z,62.56
2023-05-22T01:33:05.435Z,62.29
2023-05-22T01:34:05.495Z,62.32
2023-05-22T01:35:05.430Z,62.36
2023-05-22T01:36:05.451Z,62.29
2023-05-22T01:37:05.474Z,62.14
2023-05-22T01:38:05.480Z,62.22
2023-05-22T01:39:05.525Z,62.46
2023-05-22T01:40:05.527Z,62.81
2023-05-22T01:41:05.535Z,62.90
2023-05-22T01:42:05.548Z,63.04
2023-05-22T01:43:05.577Z,63.10
2023-05-22T01:44:05.619Z,63.06
2023-05-22T01:45:05.615Z,62.95
2023-05-22T01:46:05.666Z,62.97
2023-05-22T01:47:05.703Z,63.01
2023-05-22T01:48:05.759Z,63.04
2023-05-22T01:49:05.727Z,63.00
2023-05-22T01:50:05.885Z,63.06
2023-05-22T01:51:05.769Z,63.40
2023-05-22T01:52:05.826Z,63.34
2023-05-22T01:53:05.851Z,63.25
2023-05-22T01:54:05.878Z,63.21
2023-05-22T01:55:05.898Z,63.13
2023-05-22T01:56:05.927Z,63.19
2023-05-22T01:57:05.952Z,62.95
2023-05-22T01:58:05.947Z,63.14
2023-05-22T01:59:05.967Z,63.02
2023-05-22T02:00:05.972Z,62.87
2023-05-22T02:01:06.024Z,62.58
2023-05-22T02:02:06.070Z,62.57
2023-05-22T02:03:06.108Z,62.22
2023-05-22T02:04:06.022Z,62.12
2023-05-22T02:05:06.047Z,62.17
2023-05-22T02:06:06.069Z,61.94
2023-05-22T02:07:06.036Z,62.16
2023-05-22T02:08:06.053Z,62.11
2023-05-22T02:09:06.063Z,62.05
2023-05-22T02:10:06.093Z,61.96
2023-05-22T02:11:06.094Z,61.96
2023-05-22T02:12:06.089Z,61.79
2023-05-22T02:13:06.098Z,61.71
2023-05-22T02:14:06.093Z,61.51
2023-05-22T02:15:06.106Z,61.62
2023-05-22T02:16:06.141Z,61.62
2023-05-22T02:17:06.122Z,61.54
2023-05-22T02:18:06.195Z,61.77
2023-05-22T02:19:06.194Z,62.03
2023-05-22T02:20:06.108Z,62.34
2023-05-22T02:21:06.128Z,62.72
2023-05-22T02:22:06.162Z,63.16
2023-05-22T02:23:06.171Z,63.28
2023-05-22T02:24:06.166Z,63.43
2023-05-22T02:25:06.187Z,63.53
2023-05-22T02:26:06.186Z,63.52
2023-05-22T02:27:06.202Z,63.86
2023-05-22T02:28:06.254Z,63.98
2023-05-22T02:29:06.247Z,64.11
2023-05-22T02:30:06.261Z,64.24
2023-05-22T02:31:06.305Z,64.24
2023-05-22T02:32:06.310Z,64.17
2023-05-22T02:33:06.458Z,64.36
2023-05-22T02:34:06.348Z,64.38
2023-05-22T02:35:06.362Z,64.45
2023-05-22T02:36:06.436Z,64.50
2023-05-22T02:37:06.408Z,64.52
2023-05-22T02:38:06.453Z,64.73
2023-05-22T02:39:06.435Z,64.75
2023-05-22T02:40:06.577Z,64.85
2023-05-22T02:41:06.534Z,64.90
2023-05-22T02:42:06.544Z,64.93
2023-05-22T02:43:06.582Z,64.86
2023-05-22T02:44:06.614Z,64.79
2023-05-22T02:45:06.640Z,64.86
2023-05-22T02:46:06.725Z,64.92
2023-05-22T02:47:06.773Z,64.85
2023-05-22T02:48:06.874Z,64.84
2023-05-22T02:49:06.851Z,64.76
2023-05-22T02:50:06.883Z,64.71
2023-05-22T02:51:06.908Z,64.64
2023-05-22T02:52:06.938Z,64.61
2023-05-22T02:53:06.981Z,64.46
2023-05-22T02:54:07.044Z,64.40
2023-05-22T02:55:07.037Z,64.38
2023-05-22T02:56:07.049Z,64.51
2023-05-22T02:57:07.071Z,64.41
2023-05-22T02:58:07.092Z,63.78
2023-05-22T02:59:07.079Z,63.53
2023-05-22T03:00:07.094Z,63.81
2023-05-22T03:01:07.111Z,63.38
2023-05-22T03:02:07.152Z,63.26
2023-05-22T03:03:07.176Z,63.31
2023-05-22T03:04:07.217Z,63.01
2023-05-22T03:05:07.108Z,62.80
2023-05-22T03:06:07.098Z,62.59
2023-05-22T03:07:07.096Z,62.59
2023-05-22T03:08:07.085Z,62.89
2023-05-22T03:09:07.091Z,63.00
2023-05-22T03:10:07.146Z,62.91
2023-05-22T03:11:07.113Z,63.30
2023-05-22T03:12:07.137Z,63.35
2023-05-22T03:13:07.187Z,63.77
2023-05-22T03:14:07.218Z,63.68
2023-05-22T03:15:07.267Z,63.77
2023-05-22T03:16:07.328Z,63.90
2023-05-22T03:17:07.365Z,63.98
2023-05-22T03:18:07.429Z,63.89
2023-05-22T03:19:07.502Z,63.83
2023-05-22T03:20:07.548Z,64.09
2023-05-22T03:21:07.541Z,64.10
2023-05-22T03:22:07.587Z,64.16
2023-05-22T03:23:07.630Z,64.32
2023-05-22T03:24:07.695Z,64.32
2023-05-22T03:25:07.712Z,64.50
2023-05-22T03:26:07.806Z,64.55
2023-05-22T03:27:07.841Z,64.43
2023-05-22T03:28:07.871Z,64.38
2023-05-22T03:29:07.964Z,64.27
2023-05-22T03:30:08.002Z,64.07
2023-05-22T03:31:08.028Z,64.06
2023-05-22T03:32:08.104Z,64.10
2023-05-22T03:33:08.226Z,64.10
2023-05-22T03:34:08.325Z,64.38
2023-05-22T03:35:08.300Z,64.39
2023-05-22T03:36:08.352Z,64.45
2023-05-22T03:37:08.396Z,64.53
2023-05-22T03:38:08.468Z,64.55
2023-05-22T03:39:08.529Z,64.50
2023-05-22T03:40:08.596Z,64.52
2023-05-22T03:41:08.671Z,64.68
2023-05-22T03:42:08.690Z,64.84
2023-05-22T03:43:08.712Z,64.76
2023-05-22T03:44:08.766Z,64.68
2023-05-22T03:45:08.813Z,64.76
2023-05-22T03:46:08.950Z,64.60
2023-05-22T03:47:08.861Z,64.49
2023-05-22T03:48:08.935Z,64.33
2023-05-22T03:49:08.888Z,64.19
2023-05-22T03:50:08.897Z,64.21
2023-05-22T03:51:08.917Z,63.76
2023-05-22T03:52:08.921Z,63.49
2023-05-22T03:53:08.963Z,63.38
2023-05-22T03:54:08.974Z,63.23
2023-05-22T03:55:08.972Z,63.07
2023-05-22T03:56:08.990Z,62.76
2023-05-22T03:57:08.995Z,62.74
2023-05-22T03:58:09.027Z,62.69
2023-05-22T03:59:09.035Z,62.60
2023-05-22T04:00:09.077Z,62.57
2023-05-22T04:01:09.104Z,62.36
2023-05-22T04:02:09.126Z,62.41
2023-05-22T04:03:09.224Z,62.50
2023-05-22T04:04:09.237Z,62.32
2023-05-22T04:05:09.259Z,62.17
2023-05-22T04:06:09.283Z,62.17
2023-05-22T04:07:09.332Z,62.04
2023-05-22T04:08:09.413Z,61.71
2023-05-22T04:09:09.461Z,61.53
2023-05-22T04:10:09.526Z,61.57
2023-05-22T04:11:09.605Z,61.64
2023-05-22T04:12:09.662Z,61.41
2023-05-22T04:13:09.731Z,61.42
2023-05-22T04:14:09.827Z,61.40
2023-05-22T04:15:09.849Z,61.35
2023-05-22T04:16:09.930Z,61.30
2023-05-22T04:17:09.917Z,60.92
2023-05-22T04:18:10.019Z,60.66
2023-05-22T04:19:10.046Z,60.06
2023-05-22T04:20:10.034Z,59.54
2023-05-22T04:21:10.080Z,59.08
2023-05-22T04:22:10.152Z,58.62
2023-05-22T04:23:10.068Z,58.27
2023-05-22T04:24:10.040Z,57.58
2023-05-22T04:25:10.019Z,56.70
2023-05-22T04:26:10.040Z,56.14
2023-05-22T04:27:10.080Z,55.50
2023-05-22T04:28:10.013Z,54.64
2023-05-22T04:29:09.978Z,54.04
2023-05-22T04:30:09.956Z,53.05
2023-05-22T04:31:09.995Z,52.24
2023-05-22T04:32:09.915Z,51.69
2023-05-22T04:33:09.950Z,51.18
2023-05-22T04:34:09.890Z,50.67
2023-05-22T04:35:09.867Z,50.06
2023-05-22T04:36:12.356Z,49.95
2023-05-22T04:37:09.795Z,49.95
2023-05-22T04:38:09.735Z,49.99
2023-05-22T04:39:09.674Z,50.28
2023-05-22T04:40:09.626Z,50.27
2023-05-22T04:41:09.603Z,50.25
2023-05-22T04:42:09.530Z,49.97
2023-05-22T04:43:09.487Z,49.91
2023-05-22T04:44:09.424Z,49.64
2023-05-22T04:45:09.354Z,49.52
2023-05-22T04:46:09.408Z,49.49
2023-05-22T04:47:09.340Z,49.23
2023-05-22T04:48:09.561Z,49.35
2023-05-22T04:49:09.111Z,49.57
2023-05-22T04:50:09.062Z,49.85
2023-05-22T04:51:09.034Z,49.95
2023-05-22T04:52:08.989Z,50.01
2023-05-22T04:53:08.932Z,49.96
2023-05-22T04:54:08.842Z,49.66
2023-05-22T04:55:08.799Z,49.76
2023-05-22T04:56:08.775Z,50.11
2023-05-22T04:57:08.683Z,50.10
2023-05-22T04:58:08.642Z,50.11
2023-05-22T04:59:08.569Z,50.01
2023-05-22T05:00:08.519Z,49.89
2023-05-22T05:01:08.460Z,49.54
2023-05-22T05:02:08.497Z,49.26
2023-05-22T05:03:08.577Z,48.81
2023-05-22T05:04:08.356Z,48.07
2023-05-22T05:05:08.219Z,47.77
2023-05-22T05:06:08.116Z,47.61
2023-05-22T05:07:08.042Z,47.56
2023-05-22T05:08:07.971Z,47.21
2023-05-22T05:09:07.902Z,47.91
2023-05-22T05:10:07.850Z,48.13
2023-05-22T05:11:07.752Z,49.07
2023-05-22T05:12:07.738Z,49.54
2023-05-22T05:13:07.592Z,49.40
2023-05-22T05:14:07.604Z,49.31
2023-05-22T05:15:07.440Z,49.39
2023-05-22T05:16:07.386Z,50.13
2023-05-22T05:17:07.286Z,50.70
2023-05-22T05:18:07.441Z,50.98
2023-05-22T05:19:07.202Z,51.15
2023-05-22T05:20:07.078Z,51.35
2023-05-22T05:21:07.013Z,51.42
2023-05-22T05:22:06.921Z,51.67
2023-05-22T05:23:07.085Z,51.59
2023-05-22T05:24:06.862Z,51.27
2023-05-22T05:25:06.792Z,51.07
2023-05-22T05:26:06.732Z,50.68
2023-05-22T05:27:06.720Z,50.43
2023-05-22T05:28:06.679Z,51.01
2023-05-22T05:29:06.663Z,50.74
2023-05-22T05:30:06.666Z,50.94
2023-05-22T05:31:07.168Z,50.55
2023-05-22T05:32:06.680Z,50.36
2023-05-22T05:33:07.162Z,50.60
2023-05-22T05:34:06.601Z,50.86
2023-05-22T05:35:06.532Z,51.11
2023-05-22T05:36:06.524Z,50.93
2023-05-22T05:37:06.496Z,50.70
2023-05-22T05:38:06.456Z,51.11
2023-05-22T05:39:06.472Z,51.19
2023-05-22T05:40:06.433Z,50.85
2023-05-22T05:41:06.407Z,50.92
2023-05-22T05:42:06.420Z,51.08
2023-05-22T05:43:08.052Z,51.23
2023-05-22T05:44:06.297Z,51.34
2023-05-22T05:45:06.583Z,51.29
2023-05-22T05:46:06.205Z,51.23
2023-05-22T05:47:06.086Z,51.06
2023-05-22T05:48:13.526Z,51.32
2023-05-22T05:49:05.970Z,51.72
2023-05-22T05:50:06.211Z,51.63
2023-05-22T05:51:05.807Z,51.65
2023-05-22T05:52:05.747Z,51.79
2023-05-22T05:53:06.111Z,51.80
2023-05-22T05:54:05.622Z,51.74
2023-05-22T05:55:05.552Z,51.83
2023-05-22T05:56:05.625Z,51.99
2023-05-22T05:57:05.449Z,52.20
2023-05-22T05:58:05.417Z,52.52
2023-05-22T05:59:05.349Z,52.83
2023-05-22T06:00:20.856Z,52.52
2023-05-22T06:01:07.329Z,52.32
2023-05-22T06:02:20.855Z,52.30
2023-05-22T06:03:06.105Z,52.68
2023-05-22T06:04:20.595Z,53.06
2023-05-22T06:06:20.605Z,53.68
2023-05-22T06:07:04.812Z,53.62
2023-05-22T06:09:08.121Z,53.60
2023-05-22T06:10:12.852Z,53.34
2023-05-22T06:11:20.393Z,52.93
2023-05-22T06:12:07.673Z,52.61
2023-05-22T06:13:04.400Z,52.22
2023-05-22T06:14:04.424Z,52.14
2023-05-22T06:15:11.998Z,51.97
2023-05-22T06:16:19.893Z,51.67
2023-05-22T06:17:04.629Z,51.41
2023-05-22T06:18:04.226Z,51.12
2023-05-22T06:19:05.157Z,51.31
2023-05-22T06:20:04.062Z,50.98
2023-05-22T06:21:05.979Z,50.68
2023-05-22T06:22:04.208Z,51.00
2023-05-22T06:23:03.683Z,51.23
2023-05-22T06:24:03.626Z,50.73
2023-05-22T06:25:03.552Z,50.84
2023-05-22T06:26:03.478Z,50.33
2023-05-22T06:27:03.624Z,50.15
2023-05-22T06:28:03.346Z,50.33
2023-05-22T06:29:03.276Z,50.18
2023-05-22T06:30:04.590Z,50.09
2023-05-22T06:31:03.367Z,50.09
2023-05-22T06:32:03.666Z,49.94
2023-05-22T06:33:03.388Z,49.49
2023-05-22T06:34:03.369Z,49.25
2023-05-22T06:35:03.456Z,49.07
2023-05-22T06:36:03.304Z,48.55
2023-05-22T06:37:03.775Z,48.35
2023-05-22T06:38:03.460Z,48.52
2023-05-22T06:39:03.261Z,48.56
2023-05-22T06:40:10.620Z,48.50
2023-05-22T06:41:03.136Z,48.00
2023-05-22T06:42:03.552Z,47.77
2023-05-22T06:43:03.007Z,47.53
2023-05-22T06:44:06.115Z,46.75
2023-05-22T06:45:02.862Z,46.61
2023-05-22T06:46:02.815Z,46.39
2023-05-22T06:47:02.708Z,46.43
2023-05-22T06:48:06.387Z,46.17
2023-05-22T06:49:03.581Z,46.20
2023-05-22T06:50:02.935Z,45.90
2023-05-22T06:51:02.425Z,45.63
2023-05-22T06:52:05.216Z,45.66
2023-05-22T06:53:05.471Z,45.73
2023-05-22T06:54:02.267Z,45.84
2023-05-22T06:55:04.289Z,45.69
2023-05-22T06:56:04.107Z,45.69
2023-05-22T06:57:02.205Z,45.19
2023-05-22T06:58:02.768Z,45.43
2023-05-22T06:59:00.934Z,45.50
2023-05-22T07:00:02.355Z,45.62
2023-05-22T07:01:01.983Z,45.37
2023-05-22T07:02:01.577Z,44.91
2023-05-22T07:03:01.728Z,44.45
2023-05-22T07:04:01.445Z,44.14
2023-05-22T07:05:02.661Z,43.82
2023-05-22T07:06:01.257Z,43.99
2023-05-22T07:07:01.183Z,43.93
2023-05-22T07:08:01.149Z,43.87
2023-05-22T07:09:01.188Z,43.77
2023-05-22T07:10:01.430Z,43.51
2023-05-22T07:11:02.332Z,43.08
2023-05-22T07:12:00.783Z,42.92
2023-05-22T07:13:01.170Z,43.11
2023-05-22T07:14:00.587Z,43.05
2023-05-22T07:15:00.522Z,43.13
2023-05-22T07:16:00.515Z,43.29
2023-05-22T07:17:01.572Z,43.24
2023-05-22T07:18:00.427Z,43.37
2023-05-22T07:19:00.301Z,43.40
2023-05-22T07:20:00.227Z,43.18
2023-05-22T07:21:00.168Z,43.00
2023-05-22T07:22:00.183Z,42.20
2023-05-22T07:23:00.161Z,41.58
2023-05-22T07:23:59.971Z,41.32
2023-05-22T07:24:59.935Z,41.32
2023-05-22T07:26:03.342Z,41.15
2023-05-22T07:26:59.834Z,41.28
2023-05-22T07:28:01.123Z,40.90
2023-05-22T07:28:59.641Z,41.00
2023-05-22T07:29:59.548Z,41.38
2023-05-22T07:31:00.455Z,41.37
2023-05-22T07:31:59.469Z,41.59
2023-05-22T07:32:59.699Z,42.26
2023-05-22T07:34:00.129Z,42.15
2023-05-22T07:34:59.329Z,42.27
2023-05-22T07:35:59.284Z,42.15
2023-05-22T07:37:02.455Z,41.92
2023-05-22T07:37:59.372Z,41.72
2023-05-22T07:39:02.289Z,41.70
2023-05-22T07:39:59.895Z,41.48
2023-05-22T07:40:58.793Z,40.98
2023-05-22T07:42:30.743Z,41.05
2023-05-22T07:42:59.366Z,40.74
2023-05-22T07:44:06.042Z,40.59
2023-05-22T07:45:00.491Z,40.35
2023-05-22T07:45:59.829Z,40.30
2023-05-22T07:47:05.771Z,40.02
2023-05-22T07:47:58.669Z,40.06
2023-05-22T07:49:01.332Z,40.25
2023-05-22T07:49:58.505Z,40.29
2023-05-22T07:50:57.930Z,39.90
2023-05-22T07:52:05.188Z,40.23
2023-05-22T07:53:00.873Z,39.80
2023-05-22T07:54:04.958Z,39.40
2023-05-22T07:54:57.648Z,39.04
2023-05-22T07:56:00.497Z,39.17
2023-05-22T07:56:57.193Z,38.91
2023-05-22T07:57:57.389Z,39.05
2023-05-22T07:58:57.157Z,39.01
2023-05-22T07:59:56.875Z,38.29
2023-05-22T08:00:56.693Z,37.97
2023-05-22T08:01:58.160Z,37.85
2023-05-22T08:02:56.766Z,37.82
2023-05-22T08:03:56.922Z,37.70
2023-05-22T08:04:56.697Z,37.45
2023-05-22T08:05:56.058Z,37.70
2023-05-22T08:06:55.943Z,37.00
2023-05-22T08:07:55.804Z,37.17
2023-05-22T08:08:56.146Z,37.26
2023-05-22T08:09:55.540Z,37.44
2023-05-22T08:11:04.159Z,37.22
2023-05-22T08:11:55.279Z,36.89
2023-05-22T08:12:55.154Z,36.60
2023-05-22T08:13:55.164Z,36.33
2023-05-22T08:14:55.067Z,36.04
2023-05-22T08:16:00.288Z,35.65
2023-05-22T08:16:54.686Z,35.64
2023-05-22T08:17:54.493Z,34.95
2023-05-22T08:18:54.698Z,34.38
2023-05-22T08:19:54.233Z,34.02
2023-05-22T08:20:54.963Z,33.85
2023-05-22T08:21:53.924Z,33.61
2023-05-22T08:22:54.692Z,33.25
2023-05-22T08:23:53.639Z,33.41
2023-05-22T08:24:53.426Z,33.32
2023-05-22T08:25:53.331Z,32.91
2023-05-22T08:26:53.146Z,32.48
2023-05-22T08:27:52.996Z,32.21
2023-05-22T08:28:53.145Z,31.63
2023-05-22T08:29:52.855Z,31.44
2023-05-22T08:30:52.528Z,31.95
2023-05-22T08:31:52.487Z,32.14
2023-05-22T08:32:52.668Z,32.31
2023-05-22T08:33:52.184Z,31.79
2023-05-22T08:34:51.882Z,31.49
2023-05-22T08:35:51.705Z,31.21
2023-05-22T08:36:51.583Z,30.32
2023-05-22T08:37:51.413Z,30.38
2023-05-22T08:38:51.675Z,30.58
2023-05-22T08:39:58.583Z,30.52
2023-05-22T08:40:51.212Z,30.74
2023-05-22T08:41:49.837Z,30.16
2023-05-22T08:42:51.660Z,30.14
2023-05-22T08:43:50.659Z,29.98
2023-05-22T08:44:50.316Z,30.09
2023-05-22T08:45:50.310Z,30.08
2023-05-22T08:46:49.983Z,29.83
2023-05-22T08:47:50.151Z,30.05
2023-05-22T08:48:49.633Z,30.17
2023-05-22T08:49:49.453Z,30.16
2023-05-22T08:50:49.325Z,29.97
2023-05-22T08:51:49.168Z,29.81
2023-05-22T08:52:49.169Z,29.34
2023-05-22T08:53:48.890Z,29.06
2023-05-22T08:54:48.717Z,28.54
2023-05-22T08:55:48.560Z,28.60
2023-05-22T08:56:56.283Z,28.15
2023-05-22T08:57:48.654Z,28.05
2023-05-22T08:58:48.038Z,27.51
2023-05-22T08:59:47.862Z,27.34
2023-05-22T09:00:47.719Z,27.69
2023-05-22T09:01:47.582Z,27.49
2023-05-22T09:02:47.701Z,27.45
2023-05-22T09:03:47.678Z,27.35
2023-05-22T09:04:46.972Z,27.35
2023-05-22T09:05:46.770Z,26.83
2023-05-22T09:06:46.660Z,26.55
2023-05-22T09:07:46.661Z,26.25
2023-05-22T09:08:46.224Z,25.69
2023-05-22T09:09:46.174Z,25.46
2023-05-22T09:10:45.854Z,25.92
2023-05-22T09:11:46.162Z,26.13
2023-05-22T09:12:45.484Z,26.06
2023-05-22T09:13:45.302Z,26.18
2023-05-22T09:14:45.112Z,25.85
2023-05-22T09:15:44.923Z,26.11
2023-05-22T09:16:44.768Z,26.03
2023-05-22T09:17:44.623Z,25.85
2023-05-22T09:18:44.413Z,25.70
2023-05-22T09:19:44.121Z,25.62
2023-05-22T09:20:44.162Z,26.00
2023-05-22T09:21:44.250Z,25.84
2023-05-22T09:22:43.553Z,25.73
2023-05-22T09:23:43.344Z,25.53
2023-05-22T09:24:43.241Z,25.18
2023-05-22T09:25:43.109Z,25.30
2023-05-22T09:26:43.313Z,25.39
2023-05-22T09:27:43.658Z,25.17
2023-05-22T09:28:42.667Z,25.48
2023-05-22T09:29:42.223Z,25.05
2023-05-22T09:30:42.439Z,24.93
2023-05-22T09:31:45.332Z,24.79
2023-05-22T09:32:41.768Z,24.60
2023-05-22T09:33:41.691Z,24.34
2023-05-22T09:35:13.038Z,25.43
2023-05-22T09:35:44.379Z,25.64
2023-05-22T09:36:40.852Z,25.61
2023-05-22T09:37:40.619Z,25.06
2023-05-22T09:38:40.451Z,24.90
2023-05-22T09:39:40.247Z,25.04
2023-05-22T09:40:40.441Z,24.86
2023-05-22T09:41:43.009Z,24.89
2023-05-22T09:42:39.619Z,24.41
2023-05-22T09:43:39.685Z,24.60
2023-05-22T09:44:39.220Z,24.46
2023-05-22T09:45:42.226Z,24.44
2023-05-22T09:46:39.303Z,23.85
2023-05-22T09:47:38.710Z,23.72
2023-05-22T09:48:38.453Z,23.80
2023-05-22T09:49:38.292Z,23.90
2023-05-22T09:50:38.236Z,23.94
2023-05-22T09:51:37.887Z,23.64
2023-05-22T09:52:37.652Z,23.58
2023-05-22T09:53:37.682Z,23.10
2023-05-22T09:54:37.269Z,23.18
2023-05-22T09:55:37.060Z,22.97
2023-05-22T09:56:39.874Z,22.84
2023-05-22T09:57:36.935Z,22.72
2023-05-22T09:58:36.491Z,22.68
2023-05-22T09:59:36.316Z,23.16
2023-05-22T10:00:36.073Z,23.23
2023-05-22T10:01:35.972Z,22.98
2023-05-22T10:02:35.756Z,23.05
2023-05-22T10:03:35.686Z,23.13
2023-05-22T10:04:35.353Z,23.04
2023-05-22T10:05:35.193Z,23.26
2023-05-22T10:06:34.929Z,23.12
2023-05-22T10:07:34.734Z,23.38
2023-05-22T10:08:34.701Z,23.01
2023-05-22T10:09:34.776Z,22.37
2023-05-22T10:10:34.194Z,22.72
2023-05-22T10:11:34.019Z,23.16
2023-05-22T10:12:33.790Z,23.35
2023-05-22T10:13:33.686Z,23.42
2023-05-22T10:14:33.784Z,23.27
2023-05-22T10:15:33.249Z,23.41
2023-05-22T10:16:33.103Z,23.55
2023-05-22T10:17:32.883Z,23.40
2023-05-22T10:18:33.694Z,22.86
2023-05-22T10:19:32.509Z,23.13
2023-05-22T10:20:32.287Z,23.30
2023-05-22T10:21:32.258Z,23.53
2023-05-22T10:22:32.005Z,23.64
2023-05-22T10:23:32.195Z,23.63
2023-05-22T10:24:31.779Z,23.45
2023-05-22T10:25:31.705Z,23.47
2023-05-22T10:26:31.286Z,23.49
2023-05-22T10:27:31.089Z,23.94
2023-05-22T10:28:31.212Z,23.90
2023-05-22T10:29:30.759Z,23.91
2023-05-22T10:30:30.580Z,23.22
2023-05-22T10:31:30.383Z,23.02
2023-05-22T10:32:30.728Z,22.94
2023-05-22T10:33:30.059Z,23.48
2023-05-22T10:34:29.830Z,23.14
2023-05-22T10:35:29.624Z,22.80
2023-05-22T10:36:29.431Z,22.69
2023-05-22T10:37:29.403Z,22.85
2023-05-22T10:38:29.202Z,22.98
2023-05-22T10:39:28.937Z,22.29
2023-05-22T10:40:29.334Z,21.79
2023-05-22T10:41:28.560Z,22.21
2023-05-22T10:42:28.346Z,22.82
2023-05-22T10:43:28.177Z,22.05
2023-05-22T10:44:28.025Z,21.56
2023-05-22T10:45:27.907Z,21.67
2023-05-22T10:46:27.749Z,21.72
2023-05-22T10:47:27.531Z,21.74
2023-05-22T10:48:27.721Z,21.55
2023-05-22T10:49:27.214Z,21.37
2023-05-22T10:50:27.020Z,21.29
2023-05-22T10:51:26.829Z,21.76
2023-05-22T10:52:26.663Z,22.57
2023-05-22T10:53:26.846Z,22.75
2023-05-22T10:54:26.376Z,22.74
2023-05-22T10:55:26.233Z,22.77
2023-05-22T10:56:26.099Z,22.81
2023-05-22T10:57:25.989Z,23.05
2023-05-22T10:58:26.210Z,23.16
2023-05-22T10:59:26.644Z,23.09
2023-05-22T11:00:25.474Z,21.86
2023-05-22T11:01:25.275Z,21.91
2023-05-22T11:02:40.794Z,22.64
2023-05-22T11:03:25.273Z,22.70
2023-05-22T11:04:25.263Z,21.85
2023-05-22T11:05:24.561Z,21.97
2023-05-22T11:06:25.361Z,22.12
2023-05-22T11:07:24.199Z,21.96
2023-05-22T11:08:24.218Z,22.65
2023-05-22T11:10:23.776Z,22.89
2023-05-22T11:11:23.518Z,22.82
2023-05-22T11:12:23.320Z,23.19
2023-05-22T11:13:23.237Z,23.56
2023-05-22T11:14:23.223Z,23.88
2023-05-22T11:15:22.788Z,23.35
2023-05-22T11:16:22.721Z,23.28
2023-05-22T11:17:22.447Z,23.54
2023-05-22T11:18:22.304Z,23.23
2023-05-22T11:19:24.048Z,23.90
2023-05-22T11:20:21.939Z,23.98
2023-05-22T11:21:21.791Z,23.61
2023-05-22T11:22:21.595Z,23.12
2023-05-22T11:23:21.741Z,22.96
2023-05-22T11:24:21.756Z,22.99
2023-05-22T11:25:21.076Z,23.41
2023-05-22T11:26:21.041Z,23.23
2023-05-22T11:27:20.703Z,23.33
2023-05-22T11:28:21.507Z,23.12
2023-05-22T11:29:21.050Z,23.96
2023-05-22T11:30:20.166Z,24.45
2023-05-22T11:31:20.051Z,24.29
2023-05-22T11:32:19.806Z,23.49
2023-05-22T11:33:19.751Z,22.82
2023-05-22T11:34:19.504Z,23.84
2023-05-22T11:35:19.274Z,23.25
2023-05-22T11:36:19.075Z,24.71
2023-05-22T11:37:18.915Z,23.35
2023-05-22T11:38:18.742Z,22.53
2023-05-22T11:39:18.532Z,22.85
2023-05-22T11:40:18.351Z,22.84
2023-05-22T11:41:18.165Z,22.78
2023-05-22T11:42:18.102Z,23.55
2023-05-22T11:43:17.802Z,21.77
2023-05-22T11:44:17.636Z,22.13
2023-05-22T11:45:17.411Z,22.10
2023-05-22T11:46:17.274Z,21.42
2023-05-22T11:47:17.053Z,21.50
2023-05-22T11:48:16.955Z,22.66
2023-05-22T11:49:16.759Z,21.92
2023-05-22T11:50:22.498Z,22.95
2023-05-22T11:51:16.418Z,21.04
2023-05-22T11:52:16.157Z,21.21
2023-05-22T11:53:16.029Z,22.20
2023-05-22T11:54:15.842Z,21.77
2023-05-22T11:55:15.707Z,21.56
2023-05-22T11:56:15.587Z,21.38
2023-05-22T11:57:15.366Z,22.40
2023-05-22T11:58:15.364Z,23.23
2023-05-22T11:59:15.029Z,22.56
2023-05-22T12:00:14.941Z,23.05
2023-05-22T12:01:14.722Z,22.90
2023-05-22T12:02:14.744Z,21.45
2023-05-22T12:03:14.420Z,20.78
2023-05-22T12:04:14.262Z,21.50
2023-05-22T12:05:14.008Z,21.75
2023-05-22T12:06:16.429Z,22.43
2023-05-22T12:07:13.744Z,24.55
2023-05-22T12:08:13.764Z,23.07
2023-05-22T12:09:13.401Z,23.03
2023-05-22T12:10:13.940Z,23.40
2023-05-22T12:11:28.704Z,25.37
2023-05-22T12:12:13.272Z,24.50
2023-05-22T12:13:15.997Z,22.97
2023-05-22T12:14:12.800Z,23.81
2023-05-22T12:15:12.502Z,23.51
2023-05-22T12:16:12.493Z,22.65
2023-05-22T12:17:12.229Z,23.52
2023-05-22T12:18:12.107Z,23.01
2023-05-22T12:19:12.318Z,23.63
2023-05-22T12:20:11.772Z,23.06
2023-05-22T12:21:11.610Z,23.38
2023-05-22T12:22:11.560Z,23.09
2023-05-22T12:23:11.309Z,24.98
2023-05-22T12:24:11.250Z,22.42
2023-05-22T12:25:11.083Z,20.78
2023-05-22T12:26:10.899Z,19.91
2023-05-22T12:27:10.915Z,22.06
2023-05-22T12:28:10.628Z,21.64
2023-05-22T12:29:10.740Z,21.09
2023-05-22T12:30:10.556Z,21.17
2023-05-22T12:31:10.285Z,21.75
2023-05-22T12:32:10.085Z,21.55
2023-05-22T12:33:10.283Z,23.35
2023-05-22T12:34:09.814Z,23.38
2023-05-22T12:35:09.664Z,22.73
2023-05-22T12:36:09.524Z,20.73
2023-05-22T12:37:09.396Z,22.28
2023-05-22T12:38:09.751Z,22.44
2023-05-22T12:39:09.165Z,23.56
2023-05-22T12:40:08.968Z,22.58
2023-05-22T12:41:08.875Z,21.82
2023-05-22T12:42:08.818Z,20.77
2023-05-22T12:43:08.570Z,23.46
2023-05-22T12:48:05.354Z,25.02
2023-05-22T12:49:06.282Z,26.41
2023-05-22T12:50:06.204Z,26.10
2023-05-22T12:51:06.212Z,26.85
2023-05-22T12:52:06.212Z,24.91
2023-05-22T12:53:06.404Z,25.51
2023-05-22T12:54:06.233Z,26.07
2023-05-22T12:55:06.225Z,26.59
2023-05-22T12:56:06.193Z,26.33
2023-05-22T12:57:06.151Z,25.66
2023-05-22T12:58:06.635Z,25.87